Milwaukee, WI

9:49 AM CST on December 04, 2016 (GMT -0600)
Milwaukee Harbor | | Change Station
Active Advisory: Winter Weather Advisory

Elev 591 ft 43.02 °N, 87.91 °W | Updated 36 seconds ago

Overcast
Overcast
34.3 °F
Feels Like 34 °F
N
0.0
Wind Variable Wind from SSW
Gusts 0.0 mph

Today
High -- | Low -- °F
--% Chance of Precip.
Yesterday
High -- | Low -- °F
Precip. -- in
Pressure 30.13 in
Visibility 8.0 miles
Clouds Mostly Cloudy 2200 ft
Mostly Cloudy 2900 ft
Overcast 6000 ft
Windchill 34 °F
Dew Point 23 °F
Humidity 63%
Rainfall 0.00 in
Snow Depth Not available.
7:06 AM 4:17 PM
Waxing Crescent, 23% visible
SPECI KMKE 041459Z 00000KT 8SM BKN022 BKN029 OVC060 01/M03 A3013 RMK AO2 T00111033
Pressure 30.13 in
Visibility 8.0 miles
Clouds Mostly Cloudy 2200 ft
Mostly Cloudy 2900 ft
Overcast 6000 ft
Windchill 34 °F
Dew Point 23 °F
Humidity 63%
Rainfall 0.00 in
Snow Depth Not available.
7:06 AM 4:17 PM
Waxing Crescent, 23% visible
SPECI KMKE 041459Z 00000KT 8SM BKN022 BKN029 OVC060 01/M03 A3013 RMK AO2 T00111033

10-Day Weather Forecast

Almanac

Astronomy

Dec. 04, 2016 Rise Set
Actual Time
Civil Twilight
Nautical Twilight
Astronomical Twilight
Moon
Length of Visible Light
Length of Day
Tomorrow will be .
, % of the Moon is Illuminated

Today's Extremes

State Highs State Lows

Community

WunderPhotos

Upload Photos

1,955,609 photos uploaded!

WunderBlog® & News

Nearby

Air Quality

  Air Quality AQ Index Pollutant
Not available.

Snow Depth

Station Depth Elevation

Earthquake Activity

City Distance Mag. Time & Date
Minimum magnitude displayed is 2.5.

Coastal Water Temperatures

Place Temperature

Stations

Nearby Weather Stations

Station Location Temp. Windchill Dew Point Humidity Wind Precip. Elev Updated Type
                   

Watches & Warnings

Winter Weather Advisory
Issued: 6:51 AM CST Dec. 4, 2016 – National Weather Service

... Winter Weather Advisory remains in effect until 6 PM CST this
evening...

A Winter Weather Advisory remains in effect until 6 PM CST this
evening.

* Timing... steady snow beginning later this morning... tapering
off late in the afternoon or early evening.

* Snow accumulations... 2 to 4 inches.

* Winds... south to southeast 5 to 15 mph.

* Impacts... reduced visibility and slippery spots on untreated
roads creating hazardous travel.

Precautionary/preparedness actions...

A Winter Weather Advisory for snow means that periods of snow
will cause primarily travel difficulties. Be prepared for snow
covered roads and limited visibilities... and use caution while
driving.


Kavinsky